Latest Weather Observations for Rockhampton

IDQ60801

Issued at 10:02 am EST Monday 25 July 2016 (issued every 30 minutes, with the page automatically refreshed every 10 minutes)

About weather observations | Map of weather stations | Latest weather observations for QLD | Other Formats
Station Details ID: 039083 Name: ROCKHAMPTON AERO Lat: -23.38 Lon: 150.48 Height: 10.4 m
Data from the previous 72 hours. | See also: Recent months at Rockhampton
Date/Time
EST
Temp
°C
App
Temp
°C
Dew
Point
°C
Rel
Hum
%
Delta-T
°C
Wind Press
QNH
hPa
Press
MSL
hPa
Rain since
9am
mm
Dir  Spd
km/h
Gust
km/h
Spd
kts
Gust
kts
25/09:30am 20.9 17.2 6.1 38 7.4 S 15 22 8 12 1019.0 1019.0 0.0
25/09:00am 20.1 15.7 7.3 43 6.5 S 20 32 11 17 1018.9 1018.9 0.2
25/08:30am 19.1 15.8 10.8 58 4.5 SSW 19 22 10 12 1018.7 1018.7 0.2
25/08:00am 18.3 15.0 11.7 65 3.6 SW 20 24 11 13 1018.2 1018.2 0.2
25/07:30am 16.6 16.5 15.0 90 0.9 SW 9 13 5 7 1017.9 1017.9 0.2
25/07:00am 17.7 19.0 17.5 99 0.1 NW 7 9 4 5 1017.5 1017.5 0.2
25/06:30am 17.7 20.0 17.7 100 0.0 WSW 2 7 1 4 1017.0 1017.0 0.2
25/06:00am 18.1 20.1 17.9 99 0.1 WSW 4 7 2 4 1016.5 1016.5 0.2
25/05:30am 18.3 20.5 18.3 100 0.0 SW 4 7 2 4 1016.0 1016.0 0.2
25/05:00am 18.3 20.1 18.3 100 0.0 SW 6 7 3 4 1015.8 1015.8 0.2
25/04:30am 18.5 20.4 18.5 100 0.0 SW 6 7 3 4 1015.5 1015.5 0.2
25/04:00am 18.7 21.3 18.5 99 0.1 SW 2 7 1 4 1015.4 1015.4 0.2
25/03:30am 18.5 20.3 18.3 99 0.1 SW 6 7 3 4 1015.4 1015.4 0.2
25/03:00am 18.7 20.5 18.7 100 0.0 SW 7 11 4 6 1015.4 1015.4 0.2
25/02:30am 18.4 20.2 18.2 99 0.1 WSW 6 7 3 4 1015.2 1015.2 0.2
25/02:00am 18.3 21.2 18.1 99 0.1 CALM 0 0 0 0 1015.3 1015.3 0.2
25/01:30am 18.0 20.7 17.8 99 0.1 CALM 0 0 0 0 1015.4 1015.4 0.2
25/01:26am 18.3 21.2 18.1 99 0.1 CALM 0 0 0 0 1015.4 1015.4 0.2
25/01:00am 18.3 21.1 18.0 98 0.2 CALM 0 0 0 0 1015.4 1015.4 0.2
25/12:30am 18.2 21.0 17.9 98 0.2 CALM 0 7 0 4 1015.5 1015.5 0.2
25/12:00am 17.8 20.4 17.5 98 0.2 CALM 0 0 0 0 1015.6 1015.6 0.2
 
Date/Time
EST
Temp
°C
App
Temp
°C
Dew
Point
°C
Rel
Hum
%
Delta-T
°C
Wind Press
QNH
hPa
Press
MSL
hPa
Rain since
9am
mm
Dir  Spd
km/h
Gust
km/h
Spd
kts
Gust
kts
24/11:55pm 18.2 20.9 17.7 97 0.3 CALM 0 0 0 0 1015.6 1015.6 0.2
24/11:54pm 18.2 21.0 17.9 98 0.2 CALM 0 0 0 0 1015.6 1015.6 0.2
24/11:42pm 18.2 21.0 17.9 98 0.2 CALM 0 0 0 0 1015.7 1015.7 0.2
24/11:30pm 18.6 21.5 18.1 97 0.3 CALM 0 0 0 0 1015.7 1015.7 0.2
24/11:00pm 18.7 21.6 18.2 97 0.3 CALM 0 0 0 0 1015.7 1015.7 0.2
24/10:30pm 19.0 21.9 18.2 95 0.5 CALM 0 0 0 0 1015.9 1015.9 0.2
24/10:00pm 19.8 23.1 19.0 95 0.5 CALM 0 0 0 0 1016.1 1016.1 0.2
24/09:30pm 19.5 22.5 18.5 94 0.6 CALM 0 0 0 0 1016.0 1016.0 0.2
24/09:00pm 19.9 23.0 18.6 92 0.8 CALM 0 6 0 3 1015.8 1015.8 0.2
24/08:30pm 20.8 22.8 19.2 90 1.0 S 7 11 4 6 1015.5 1015.5 0.2
24/08:00pm 20.8 22.4 19.2 90 1.0 SSW 9 11 5 6 1015.2 1015.2 0.2
24/07:30pm 21.2 22.9 19.3 89 1.2 WSW 9 11 5 6 1014.8 1014.8 0.2
24/07:00pm 21.8 24.4 19.3 86 1.6 WNW 4 9 2 5 1014.4 1014.4 0.2
24/06:30pm 22.0 24.1 19.3 85 1.7 N 7 9 4 5 1014.0 1014.0 0.2
24/06:00pm 22.9 24.9 19.1 79 2.4 N 7 13 4 7 1013.5 1013.5 0.2
24/05:30pm 23.7 25.9 19.5 77 2.7 NNE 7 11 4 6 1013.2 1013.2 0.2
24/05:00pm 25.3 25.9 19.4 70 3.8 N 15 20 8 11 1012.8 1012.8 0.2
24/04:30pm 26.4 27.4 19.4 65 4.5 N 13 20 7 11 1012.5 1012.5 0.2
24/04:00pm 28.6 29.1 16.6 48 7.5 WNW 9 15 5 8 1012.3 1012.3 0.2
24/03:30pm 29.1 29.7 16.8 47 7.7 WNW 9 13 5 7 1012.2 1012.2 0.2
24/03:00pm 28.2 29.6 17.8 53 6.6 SW 7 11 4 6 1012.4 1012.4 0.2
24/02:30pm 28.6 31.0 18.8 55 6.3 SSW 4 9 2 5 1012.6 1012.6 0.2
24/02:00pm 27.8 29.5 18.6 57 5.9 NNW 7 13 4 7 1013.1 1013.1 0.2
24/01:30pm 27.6 29.2 18.3 57 5.9 NNW 7 11 4 6 1013.6 1013.6 0.2
24/01:00pm 26.7 28.7 18.7 61 5.1 N 6 9 3 5 1014.1 1014.1 0.2
24/12:30pm 26.7 28.4 18.5 60 5.2 WSW 7 13 4 7 1014.6 1014.6 0.2
24/12:00pm 26.4 27.7 18.5 62 5.0 NNW 9 13 5 7 1015.2 1015.2 0.2
24/11:30am 25.6 27.9 18.5 65 4.5 NE 4 9 2 5 1015.6 1015.6 0.0
24/11:00am 24.7 27.7 18.5 68 3.9 CALM 0 0 0 0 1016.1 1016.1 0.0
24/10:30am 24.0 26.1 19.0 73 3.2 NNW 6 9 3 5 1016.3 1016.3 0.0
24/10:00am 23.1 24.9 18.7 76 2.8 NNW 7 9 4 5 1016.5 1016.5 0.0
24/09:30am 22.2 24.1 18.9 81 2.1 WNW 7 11 4 6 1016.6 1016.6 0.0
24/09:00am 21.6 23.6 19.2 86 1.5 NNW 7 9 4 5 1016.5 1016.5 0.0
24/08:38am 20.1 21.9 18.8 92 0.8 NNE 7 7 4 4 1016.4 1016.4 0.0
24/08:30am 19.6 21.6 19.1 97 0.3 NNE 7 9 4 5 1016.3 1016.3 0.0
24/08:29am 19.6 21.6 19.1 97 0.3 NNE 7 9 4 5 1016.3 1016.3 0.0
24/08:00am 18.6 20.5 18.6 100 0.0 NW 6 7 3 4 1016.1 1016.1 0.0
24/07:30am 18.2 21.0 18.0 99 0.1 CALM 0 0 0 0 1015.8 1015.8 0.0
24/07:00am 17.5 20.0 17.3 99 0.1 CALM 0 0 0 0 1015.5 1015.5 0.0
24/06:49am 17.4 19.9 17.2 99 0.1 CALM 0 0 0 0 1015.4 1015.4 0.0
24/06:30am 17.2 18.4 16.9 98 0.2 NW 6 7 3 4 1015.1 1015.1 0.0
24/06:00am 17.3 19.7 17.1 99 0.1 CALM 0 0 0 0 1014.8 1014.8 0.0
24/05:49am 17.5 20.0 17.3 99 0.1 CALM 0 0 0 0 1014.7 1014.7 0.0
24/05:30am 17.6 20.2 17.4 99 0.1 CALM 0 0 0 0 1014.5 1014.5 0.0
24/05:00am 17.6 19.0 17.3 98 0.2 SW 6 7 3 4 1014.0 1014.0 0.0
24/04:55am 17.7 18.9 17.4 98 0.2 SW 7 9 4 5 1013.9 1013.9 0.0
24/04:31am 17.8 19.2 17.3 97 0.3 W 6 7 3 4 1013.7 1013.7 0.0
24/04:30am 17.8 19.2 17.3 97 0.3 W 6 7 3 4 1013.7 1013.7 0.0
24/04:00am 18.3 19.4 18.0 98 0.2 N 9 9 5 5 1013.5 1013.5 0.0
24/03:30am 18.2 19.2 17.7 97 0.3 N 9 11 5 6 1013.5 1013.5 0.0
24/03:00am 18.4 19.5 17.9 97 0.3 N 9 9 5 5 1013.4 1013.4 0.0
24/02:30am 18.6 21.4 17.9 96 0.4 CALM 0 0 0 0 1013.3 1013.3 0.0
24/02:00am 18.7 20.2 18.1 96 0.4 N 7 9 4 5 1013.2 1013.2 0.0
24/01:30am 18.9 20.0 18.1 95 0.5 N 9 13 5 7 1013.4 1013.4 0.0
24/01:00am 19.3 20.2 18.3 94 0.6 N 11 13 6 7 1013.6 1013.6 0.0
24/12:30am 19.5 20.8 18.4 93 0.7 N 9 13 5 7 1013.6 1013.6 0.0
24/12:00am 19.6 20.6 18.6 94 0.6 NNW 11 13 6 7 1013.5 1013.5 0.0
 
Date/Time
EST
Temp
°C
App
Temp
°C
Dew
Point
°C
Rel
Hum
%
Delta-T
°C
Wind Press
QNH
hPa
Press
MSL
hPa
Rain since
9am
mm
Dir  Spd
km/h
Gust
km/h
Spd
kts
Gust
kts
23/11:30pm 19.8 20.8 18.7 93 0.7 N 11 15 6 8 1013.7 1013.7 0.0
23/11:00pm 20.2 21.1 18.4 89 1.1 N 11 13 6 7 1013.8 1013.8 0.0
23/10:30pm 20.8 22.2 18.6 87 1.4 N 9 13 5 7 1013.9 1013.9 0.0
23/10:00pm 21.2 22.2 18.6 85 1.6 N 11 13 6 7 1013.8 1013.8 0.0
23/09:30pm 21.4 22.7 18.5 83 1.8 N 9 13 5 7 1013.7 1013.7 0.0
23/09:00pm 21.9 22.8 18.4 80 2.2 N 11 15 6 8 1013.6 1013.6 0.0
23/08:30pm 22.2 23.5 18.4 79 2.4 N 9 13 5 7 1013.2 1013.2 0.0
23/08:00pm 22.4 23.7 18.4 78 2.5 NNW 9 13 5 7 1013.0 1013.0 0.0
23/07:30pm 22.7 23.6 18.4 76 2.7 N 11 13 6 7 1012.5 1012.5 0.0
23/07:00pm 23.2 24.1 18.4 74 3.0 N 11 17 6 9 1012.3 1012.3 0.0
23/06:30pm 23.3 24.2 18.4 74 3.1 NNW 11 13 6 7 1011.9 1011.9 0.0
23/06:00pm 24.0 24.9 18.5 71 3.5 NNW 11 15 6 8 1011.8 1011.8 0.0
23/05:30pm 25.0 25.5 18.4 66 4.2 NNW 13 17 7 9 1011.6 1011.6 0.0
23/05:00pm 26.2 26.6 18.1 61 5.1 N 13 17 7 9 1011.5 1011.5 0.0
23/04:30pm 26.7 27.3 18.6 61 5.2 N 13 19 7 10 1011.4 1011.4 0.0
23/04:00pm 27.0 26.6 18.0 58 5.7 NNW 17 20 9 11 1011.3 1011.3 0.0
23/03:30pm 27.6 27.2 18.0 55 6.1 N 17 20 9 11 1011.3 1011.3 0.0
23/03:00pm 27.5 27.8 17.9 55 6.1 NW 13 20 7 11 1011.5 1011.5 0.0
23/02:30pm 27.7 27.5 17.6 54 6.4 NW 15 22 8 12 1011.8 1011.8 0.0
23/02:00pm 27.4 27.3 17.9 56 6.0 NW 15 20 8 11 1012.1 1012.1 0.0
23/01:30pm 27.1 27.0 17.9 57 5.8 WNW 15 22 8 12 1012.3 1012.3 0.0
23/01:00pm 26.3 26.7 18.1 60 5.2 NNW 13 19 7 10 1012.7 1012.7 0.0
23/12:30pm 25.1 24.6 17.9 64 4.5 NNW 17 20 9 11 1013.2 1013.2 0.0
23/12:00pm 24.5 24.9 18.1 67 4.0 NNW 13 22 7 12 1013.7 1013.7 0.0
23/11:30am 23.3 23.8 18.4 74 3.1 NNW 13 19 7 10 1014.4 1014.4 0.0
23/11:16am 22.2 22.5 18.0 77 2.6 NW 13 19 7 10 1014.6 1014.6 0.0
23/11:00am 22.1 22.6 18.4 79 2.3 NW 13 17 7 9 1014.9 1014.9 0.0
23/10:30am 20.9 20.9 18.0 83 1.8 NW 15 20 8 11 1015.4 1015.4 0.0
23/10:00am 19.5 19.9 18.2 92 0.8 NNW 13 19 7 10 1015.5 1015.5 0.0
23/09:32am 18.4 18.8 18.1 98 0.2 NNW 13 17 7 9 1015.8 1015.8 0.0
23/09:30am 18.4 18.8 18.2 99 0.1 NNW 13 17 7 9 1015.8 1015.8 0.0
23/09:00am 18.3 19.1 18.1 99 0.1 NNW 11 13 6 7 1015.8 1015.8 0.2
23/08:30am 18.0 19.0 17.8 99 0.1 NW 9 13 5 7 1015.7 1015.7 0.2
23/08:00am 17.7 18.2 17.5 99 0.1 NNW 11 13 6 7 1015.5 1015.5 0.2
23/07:39am 17.5 17.9 17.3 99 0.1 NW 11 13 6 7 1015.5 1015.5 0.2
23/07:30am 17.7 18.2 17.5 99 0.1 WNW 11 13 6 7 1015.5 1015.5 0.2
23/07:20am 17.7 18.6 17.5 99 0.1 NNW 9 13 5 7 1015.4 1015.4 0.2
23/07:00am 17.7 17.8 17.5 99 0.1 N 13 17 7 9 1015.0 1015.0 0.2
23/06:30am 17.6 18.2 17.6 100 0.0 N 11 15 6 8 1014.8 1014.8 0.2
23/06:00am 17.6 18.9 17.6 100 0.0 N 7 9 4 5 1014.6 1014.6 0.2
23/05:30am 17.4 18.5 17.2 99 0.1 N 7 11 4 6 1014.2 1014.2 0.2
23/05:00am 16.8 17.7 16.6 99 0.1 NNW 7 9 4 5 1014.0 1014.0 0.2
23/04:30am 16.7 17.2 16.5 99 0.1 NNW 9 11 5 6 1013.7 1013.7 0.2
23/04:21am 15.5 16.9 15.3 99 0.1 NW 2 9 1 5 1013.7 1013.7 0.2
23/04:14am 15.7 17.1 15.5 99 0.1 NW 2 6 1 3 1013.6 1013.6 0.2
23/04:00am 16.0 17.9 15.7 98 0.2 CALM 0 0 0 0 1013.7 1013.7 0.2
23/03:30am 15.9 16.5 15.4 97 0.3 NW 6 9 3 5 1013.6 1013.6 0.2
23/03:00am 16.3 17.5 15.8 97 0.3 N 4 7 2 4 1013.7 1013.7 0.2
23/02:30am 16.7 18.9 16.4 98 0.2 CALM 0 0 0 0 1013.8 1013.8 0.2
23/02:00am 16.6 18.3 16.3 98 0.2 N 2 6 1 3 1013.9 1013.9 0.2
23/01:36am 16.6 17.6 16.3 98 0.2 N 6 7 3 4 1014.1 1014.1 0.2
23/01:30am 16.4 17.1 15.7 96 0.4 N 6 7 3 4 1014.1 1014.1 0.2
23/01:22am 16.3 17.2 16.0 98 0.2 N 6 7 3 4 1014.1 1014.1 0.2
23/01:00am 17.3 19.6 16.8 97 0.3 CALM 0 0 0 0 1014.2 1014.2 0.2
23/12:30am 17.5 19.8 16.8 96 0.4 CALM 0 0 0 0 1014.4 1014.4 0.2
23/12:00am 17.8 19.5 17.1 96 0.4 N 4 6 2 3 1014.6 1014.6 0.2
 
Date/Time
EST
Temp
°C
App
Temp
°C
Dew
Point
°C
Rel
Hum
%
Delta-T
°C
Wind Press
QNH
hPa
Press
MSL
hPa
Rain since
9am
mm
Dir  Spd
km/h
Gust
km/h
Spd
kts
Gust
kts
22/11:30pm 18.3 19.7 17.3 94 0.6 N 6 7 3 4 1014.7 1014.7 0.2
22/11:00pm 18.8 19.7 17.5 92 0.8 N 9 11 5 6 1014.8 1014.8 0.2
22/10:30pm 19.3 20.8 17.5 89 1.1 NNW 6 7 3 4 1015.0 1015.0 0.2
22/10:00pm 19.7 21.0 17.6 88 1.3 NNW 7 9 4 5 1015.1 1015.1 0.2
22/09:30pm 20.2 21.4 17.4 84 1.7 N 7 9 4 5 1015.0 1015.0 0.2
22/09:00pm 20.3 21.3 17.7 85 1.6 N 9 11 5 6 1014.9 1014.9 0.2
22/08:30pm 20.9 21.2 17.8 82 1.9 N 13 17 7 9 1014.8 1014.8 0.2
22/08:00pm 21.1 20.8 17.4 79 2.3 NNE 15 19 8 10 1014.6 1014.6 0.2
22/07:30pm 21.1 21.2 17.5 80 2.2 NNE 13 17 7 9 1014.6 1014.6 0.2
22/07:00pm 21.6 22.2 17.7 78 2.4 N 11 13 6 7 1014.3 1014.3 0.2
22/06:30pm 22.1 22.5 18.1 78 2.5 NNE 13 13 7 7 1014.1 1014.1 0.2
22/06:00pm 23.3 24.1 17.3 69 3.7 N 9 9 5 5 1013.9 1013.9 0.2
22/05:30pm 24.4 25.5 17.1 63 4.5 N 7 7 4 4 1013.8 1013.8 0.2
22/05:00pm 25.6 26.2 16.7 58 5.5 N 9 13 5 7 1013.6 1013.6 0.2
22/04:30pm 26.1 25.9 15.8 53 6.3 N 11 15 6 8 1013.4 1013.4 0.2
22/04:00pm 26.6 25.9 16.4 53 6.3 NNE 15 19 8 10 1013.4 1013.4 0.2
22/03:30pm 26.8 25.5 13.6 44 7.8 N 13 20 7 11 1013.3 1013.3 0.2
22/03:00pm 27.1 26.7 15.2 48 7.2 N 11 19 6 10 1013.4 1013.4 0.2
22/02:30pm 27.4 27.9 16.6 51 6.7 WNW 9 15 5 8 1013.5 1013.5 0.2
22/02:00pm 26.9 26.5 16.2 52 6.6 WNW 13 19 7 10 1013.9 1013.9 0.2
22/01:30pm 26.5 26.8 16.1 52 6.4 NNW 9 17 5 9 1014.3 1014.3 0.2
22/01:00pm 26.3 27.3 16.4 54 6.1 NNW 6 9 3 5 1014.8 1014.8 0.2
22/12:30pm 25.3 25.9 15.9 56 5.7 WNW 7 17 4 9 1015.3 1015.3 0.0
22/12:00pm 25.2 26.3 17.1 60 5.0 NNW 7 9 4 5 1015.8 1015.8 0.0
22/11:30am 24.2 25.3 16.7 63 4.6 NW 6 9 3 5 1016.5 1016.5 0.0
22/11:00am 23.6 24.0 16.2 63 4.5 WNW 9 13 5 7 1016.9 1016.9 0.0
22/10:30am 22.8 24.3 18.0 74 3.0 NW 7 9 4 5 1017.3 1017.3 0.0

Other Formats:

Comma delimited format used in spreadsheet applications
http://www.bom.gov.au/fwo/IDQ60801/IDQ60801.94374.axf

JavaScript Object Notation format (JSON) in row-major order
http://www.bom.gov.au/fwo/IDQ60801/IDQ60801.94374.json